createdAt,value
2018-05-31T00:01:06.380Z,20.10
2018-05-31T00:03:33.152Z,20.87
2018-05-31T00:05:59.911Z,22.23
2018-05-31T00:08:26.657Z,21.03
2018-05-31T00:10:53.422Z,19.63
2018-05-31T00:13:20.182Z,20.00
2018-05-31T00:15:46.937Z,20.60
2018-05-31T00:18:13.684Z,18.90
2018-05-31T00:20:40.423Z,19.10
2018-05-31T00:23:07.170Z,18.27
2018-05-31T00:25:33.903Z,17.77
2018-05-31T00:28:00.672Z,16.90
2018-05-31T00:30:27.438Z,16.17
2018-05-31T00:32:54.182Z,15.87
2018-05-31T00:35:20.938Z,17.00
2018-05-31T00:37:47.718Z,17.00
2018-05-31T00:40:14.449Z,17.87
2018-05-31T00:42:41.194Z,18.40
2018-05-31T00:45:07.966Z,18.20
2018-05-31T00:47:34.733Z,17.47
2018-05-31T00:50:01.514Z,17.60
2018-05-31T00:52:28.258Z,19.33
2018-05-31T00:54:55.010Z,17.27
2018-05-31T00:57:21.772Z,18.50
2018-05-31T00:59:48.553Z,19.20
2018-05-31T01:02:15.285Z,21.10
2018-05-31T01:04:42.039Z,20.63
2018-05-31T01:07:08.803Z,20.87
2018-05-31T01:09:35.536Z,19.60
2018-05-31T01:12:02.305Z,20.63
2018-05-31T01:14:29.060Z,21.83
2018-05-31T01:16:55.814Z,19.87
2018-05-31T01:19:22.545Z,20.80
2018-05-31T01:21:49.290Z,21.20
2018-05-31T01:24:16.059Z,21.60
2018-05-31T01:26:42.802Z,20.43
2018-05-31T01:29:09.546Z,21.23
2018-05-31T01:31:36.291Z,21.27
2018-05-31T01:34:03.058Z,21.90
2018-05-31T01:36:29.828Z,20.37
2018-05-31T01:38:56.597Z,20.37
2018-05-31T01:41:23.351Z,19.90
2018-05-31T01:43:50.104Z,19.60
2018-05-31T01:46:16.880Z,20.40
2018-05-31T01:48:43.637Z,20.00
2018-05-31T01:51:10.377Z,19.53
2018-05-31T01:53:37.109Z,18.77
2018-05-31T01:56:03.864Z,19.53
2018-05-31T01:58:30.613Z,20.90
2018-05-31T02:00:57.379Z,19.90
2018-05-31T02:03:24.145Z,20.13
2018-05-31T02:05:54.763Z,20.40
2018-05-31T02:08:21.489Z,19.43
2018-05-31T02:10:48.235Z,20.47
2018-05-31T02:13:14.976Z,19.50
2018-05-31T02:15:41.720Z,19.23
2018-05-31T02:18:08.469Z,19.50
2018-05-31T02:20:35.215Z,19.57
2018-05-31T02:23:01.964Z,20.20
2018-05-31T02:25:28.711Z,20.23
2018-05-31T02:27:55.454Z,19.60
2018-05-31T02:30:22.222Z,19.00
2018-05-31T02:32:48.984Z,20.47
2018-05-31T02:35:15.738Z,20.90
2018-05-31T02:37:42.494Z,19.47
2018-05-31T02:40:09.246Z,19.17
2018-05-31T02:42:35.999Z,18.83
2018-05-31T02:45:02.737Z,18.57
2018-05-31T02:47:29.482Z,18.83
2018-05-31T02:49:56.237Z,18.03
2018-05-31T02:52:22.992Z,17.73
2018-05-31T02:54:49.739Z,18.17
2018-05-31T02:57:16.483Z,19.43
2018-05-31T02:59:43.232Z,18.57
2018-05-31T03:02:09.994Z,18.73
2018-05-31T03:04:36.736Z,18.50
2018-05-31T03:07:03.504Z,19.10
2018-05-31T03:09:30.263Z,18.53
2018-05-31T03:11:57.020Z,18.67
2018-05-31T03:14:23.790Z,18.50
2018-05-31T03:16:50.545Z,18.60
2018-05-31T03:19:17.315Z,18.30
2018-05-31T03:21:44.061Z,18.43
2018-05-31T03:24:10.819Z,20.50
2018-05-31T03:26:37.573Z,18.87
2018-05-31T03:29:04.342Z,18.37
2018-05-31T03:31:31.096Z,17.50
2018-05-31T03:33:57.834Z,17.87
2018-05-31T03:36:24.569Z,17.83
2018-05-31T03:38:51.307Z,18.10
2018-05-31T03:41:18.061Z,18.20
2018-05-31T03:43:44.810Z,19.40
2018-05-31T03:46:11.583Z,19.50
2018-05-31T03:48:38.329Z,20.10
2018-05-31T03:51:05.068Z,19.50
2018-05-31T03:53:31.831Z,18.43
2018-05-31T03:55:58.608Z,19.80
2018-05-31T03:58:25.359Z,19.77
2018-05-31T04:00:52.101Z,20.43
2018-05-31T04:03:18.856Z,20.10
2018-05-31T04:05:45.593Z,20.67
2018-05-31T04:08:12.354Z,19.50
2018-05-31T04:10:39.133Z,18.83
2018-05-31T04:13:05.913Z,19.70
2018-05-31T04:15:32.662Z,21.07
2018-05-31T04:17:59.420Z,19.80
2018-05-31T04:20:26.187Z,19.07
2018-05-31T04:22:52.949Z,20.40
2018-05-31T04:25:19.715Z,19.10
2018-05-31T04:27:46.467Z,18.13
2018-05-31T04:30:13.207Z,17.90
2018-05-31T04:32:39.953Z,17.37
2018-05-31T04:35:06.718Z,20.07
2018-05-31T04:37:33.457Z,21.27
2018-05-31T04:40:00.201Z,22.27
2018-05-31T04:42:26.962Z,21.00
2018-05-31T04:44:53.773Z,22.00
2018-05-31T04:47:20.510Z,24.03
2018-05-31T04:49:47.261Z,23.40
2018-05-31T04:52:14.013Z,22.07
2018-05-31T04:54:40.772Z,22.13
2018-05-31T04:57:07.520Z,23.07
2018-05-31T04:59:34.272Z,23.40
2018-05-31T05:02:01.033Z,23.53
2018-05-31T05:04:27.789Z,23.40
2018-05-31T05:06:54.566Z,24.17
2018-05-31T05:09:21.324Z,22.40
2018-05-31T05:11:48.072Z,22.83
2018-05-31T05:14:14.831Z,22.50
2018-05-31T05:16:41.577Z,21.43
2018-05-31T05:19:08.332Z,20.97
2018-05-31T05:21:35.090Z,21.57
2018-05-31T05:24:01.843Z,22.30
2018-05-31T05:26:28.705Z,20.20
2018-05-31T05:28:55.441Z,21.67
2018-05-31T05:31:22.180Z,20.80
2018-05-31T05:33:49.005Z,21.00
2018-05-31T05:36:15.767Z,22.57
2018-05-31T05:38:42.517Z,20.60
2018-05-31T05:41:09.258Z,19.27
2018-05-31T05:43:36.075Z,20.00
2018-05-31T05:46:02.788Z,21.00
2018-05-31T05:48:29.564Z,21.43
2018-05-31T05:50:56.317Z,21.10
2018-05-31T05:53:23.116Z,21.50
2018-05-31T05:55:49.895Z,19.50
2018-05-31T05:58:16.638Z,20.20
2018-05-31T06:00:43.404Z,19.43
2018-05-31T06:03:10.166Z,19.10
2018-05-31T06:05:36.949Z,20.60
2018-05-31T06:08:03.699Z,20.67
2018-05-31T06:10:30.526Z,18.47
2018-05-31T06:12:57.290Z,18.13
2018-05-31T06:15:25.114Z,18.10
2018-05-31T06:17:51.862Z,17.47
2018-05-31T06:20:18.617Z,18.57
2018-05-31T06:22:45.355Z,16.70
2018-05-31T06:25:12.097Z,17.73
2018-05-31T06:27:38.865Z,16.30
2018-05-31T06:30:05.632Z,16.63
2018-05-31T06:32:32.404Z,15.03
2018-05-31T06:34:59.166Z,16.00
2018-05-31T06:37:25.969Z,15.50
2018-05-31T06:39:52.707Z,16.57
2018-05-31T06:42:19.442Z,15.30
2018-05-31T06:44:46.187Z,15.83
2018-05-31T06:47:12.928Z,14.80
2018-05-31T06:49:39.666Z,14.00
2018-05-31T06:52:06.397Z,14.10
2018-05-31T06:54:33.141Z,14.70
2018-05-31T06:56:59.883Z,35.37
2018-05-31T06:59:26.611Z,21.77
2018-05-31T07:01:53.352Z,16.13
2018-05-31T07:04:20.153Z,15.60
2018-05-31T07:06:46.897Z,14.13
2018-05-31T07:09:13.646Z,13.03
2018-05-31T07:11:40.369Z,12.60
2018-05-31T07:14:07.116Z,12.70
2018-05-31T07:16:33.843Z,14.13
2018-05-31T07:19:00.586Z,13.97
2018-05-31T07:21:27.330Z,13.30
2018-05-31T07:23:54.085Z,14.30
2018-05-31T07:26:20.810Z,12.83
2018-05-31T07:28:47.552Z,14.77
2018-05-31T07:31:14.296Z,13.23
2018-05-31T07:33:41.047Z,13.53
2018-05-31T07:36:07.778Z,14.90
2018-05-31T07:38:34.508Z,15.63
2018-05-31T07:41:01.243Z,15.20
2018-05-31T07:43:27.986Z,12.80
2018-05-31T07:45:54.752Z,13.40
2018-05-31T07:48:21.497Z,13.53
2018-05-31T07:50:48.233Z,12.03
2018-05-31T07:53:14.966Z,12.90
2018-05-31T07:55:41.731Z,12.00
2018-05-31T07:58:08.503Z,12.57
2018-05-31T08:00:35.242Z,12.03
2018-05-31T08:03:01.996Z,12.33
2018-05-31T08:05:28.729Z,11.60
2018-05-31T08:07:55.572Z,12.70
2018-05-31T08:10:22.344Z,11.93
2018-05-31T08:12:49.089Z,12.40
2018-05-31T08:15:15.829Z,13.00
2018-05-31T08:17:42.576Z,13.30
2018-05-31T08:20:09.316Z,12.57
2018-05-31T08:22:36.051Z,13.90
2018-05-31T08:25:02.813Z,14.47
2018-05-31T08:27:29.562Z,14.07
2018-05-31T08:29:56.308Z,14.03
2018-05-31T08:32:23.079Z,14.53
2018-05-31T08:34:49.836Z,12.90
2018-05-31T08:37:16.597Z,13.07
2018-05-31T08:39:43.348Z,13.20
2018-05-31T08:42:10.079Z,12.60
2018-05-31T08:44:36.817Z,14.30
2018-05-31T08:47:03.540Z,12.50
2018-05-31T08:49:30.316Z,13.77
2018-05-31T08:51:57.051Z,14.70
2018-05-31T08:54:23.854Z,14.03
2018-05-31T08:56:50.610Z,12.77
2018-05-31T08:59:17.370Z,13.20
2018-05-31T09:01:44.227Z,12.77
2018-05-31T09:04:11.233Z,13.50
2018-05-31T09:06:38.005Z,17.17
2018-05-31T09:09:04.832Z,18.17
2018-05-31T09:11:31.640Z,14.63
2018-05-31T09:13:58.411Z,13.93
2018-05-31T09:16:25.157Z,13.83
2018-05-31T09:18:51.899Z,14.03
2018-05-31T09:21:18.635Z,14.10
2018-05-31T09:23:45.395Z,14.60
2018-05-31T09:26:12.128Z,14.40
2018-05-31T09:28:38.934Z,14.40
2018-05-31T09:31:05.653Z,15.33
2018-05-31T09:33:32.393Z,14.73
2018-05-31T09:35:59.143Z,15.20
2018-05-31T09:38:25.868Z,15.20
2018-05-31T09:40:52.593Z,16.00
2018-05-31T09:43:19.347Z,14.27
2018-05-31T09:45:46.070Z,13.90
2018-05-31T09:48:12.831Z,12.93
2018-05-31T09:50:39.548Z,14.70
2018-05-31T09:53:06.276Z,14.37
2018-05-31T09:55:33.012Z,14.07
2018-05-31T09:57:59.744Z,13.93
2018-05-31T10:00:32.321Z,14.90
2018-05-31T10:02:59.096Z,15.67
2018-05-31T10:05:25.828Z,13.47
2018-05-31T10:07:52.561Z,13.97
2018-05-31T10:10:19.308Z,14.77
2018-05-31T10:12:46.048Z,13.40
2018-05-31T10:15:12.788Z,15.10
2018-05-31T10:17:39.580Z,13.57
2018-05-31T10:20:06.346Z,14.40
2018-05-31T10:22:33.076Z,14.73
2018-05-31T10:24:59.839Z,13.43
2018-05-31T10:27:27.447Z,14.13
2018-05-31T10:29:54.200Z,15.87
2018-05-31T10:32:20.944Z,13.80
2018-05-31T10:34:47.722Z,14.40
2018-05-31T10:37:14.457Z,15.03
2018-05-31T10:39:41.264Z,14.83
2018-05-31T10:42:08.017Z,14.20
2018-05-31T10:44:34.778Z,14.03
2018-05-31T10:47:01.518Z,13.37
2018-05-31T10:49:28.249Z,12.83
2018-05-31T10:51:55.053Z,14.70
2018-05-31T10:54:21.791Z,13.00
2018-05-31T10:56:48.556Z,12.57
2018-05-31T10:59:15.330Z,11.70
2018-05-31T11:01:42.066Z,12.50
2018-05-31T11:04:08.817Z,13.17
2018-05-31T11:06:35.568Z,12.00
2018-05-31T11:09:02.331Z,11.47
2018-05-31T11:11:29.147Z,11.37
2018-05-31T11:13:55.884Z,11.30
2018-05-31T11:16:22.623Z,12.37
2018-05-31T11:18:49.350Z,12.20
2018-05-31T11:21:16.090Z,12.10
2018-05-31T11:23:42.821Z,12.23
2018-05-31T11:26:09.577Z,12.37
2018-05-31T11:28:36.319Z,11.63
2018-05-31T11:31:03.063Z,12.47
2018-05-31T11:33:29.801Z,12.03
2018-05-31T11:35:56.547Z,12.10
2018-05-31T11:38:23.308Z,11.67
2018-05-31T11:40:50.058Z,10.30
2018-05-31T11:43:16.797Z,10.50
2018-05-31T11:45:43.549Z,12.10
2018-05-31T11:48:10.285Z,11.17
2018-05-31T11:50:37.776Z,12.17
2018-05-31T11:53:04.551Z,11.30
2018-05-31T11:55:31.341Z,12.37
2018-05-31T11:57:58.074Z,12.23
2018-05-31T12:00:24.928Z,11.50
2018-05-31T12:02:51.649Z,11.00
2018-05-31T12:05:18.470Z,12.07
2018-05-31T12:07:45.216Z,12.70
2018-05-31T12:10:11.962Z,12.00
2018-05-31T12:12:38.758Z,13.03
2018-05-31T12:15:05.525Z,11.53
2018-05-31T12:17:32.353Z,11.67
2018-05-31T12:19:59.057Z,12.00
2018-05-31T12:22:25.815Z,11.10
2018-05-31T12:24:52.566Z,12.27
2018-05-31T12:27:19.319Z,11.53
2018-05-31T12:29:46.048Z,12.60
2018-05-31T12:32:12.831Z,12.23
2018-05-31T12:34:39.564Z,12.40
2018-05-31T12:37:06.301Z,11.77
2018-05-31T12:39:33.050Z,10.83
2018-05-31T12:41:59.780Z,11.47
2018-05-31T12:44:26.549Z,12.63
2018-05-31T12:46:53.286Z,11.17
2018-05-31T12:49:20.029Z,12.00
2018-05-31T12:51:46.781Z,11.90
2018-05-31T12:54:13.525Z,12.73
2018-05-31T12:56:40.262Z,12.50
2018-05-31T12:59:06.988Z,12.50
2018-05-31T13:01:33.716Z,11.50
2018-05-31T13:04:00.451Z,12.40
2018-05-31T13:06:27.196Z,12.37
2018-05-31T13:08:53.926Z,12.30
2018-05-31T13:11:20.694Z,12.90
2018-05-31T13:13:47.437Z,12.17
2018-05-31T13:16:14.197Z,11.97
2018-05-31T13:18:40.930Z,11.80
2018-05-31T13:21:07.657Z,11.90
2018-05-31T13:23:34.428Z,13.63
2018-05-31T13:26:01.167Z,13.93
2018-05-31T13:28:27.893Z,14.60
2018-05-31T13:30:54.617Z,14.70
2018-05-31T13:33:21.407Z,15.20
2018-05-31T13:35:48.129Z,15.40
2018-05-31T13:38:14.879Z,14.17
2018-05-31T13:40:41.588Z,13.63
2018-05-31T13:43:08.398Z,14.10
2018-05-31T13:45:35.145Z,14.97
2018-05-31T13:48:01.881Z,15.97
2018-05-31T13:50:28.623Z,14.83
2018-05-31T13:52:55.426Z,15.67
2018-05-31T13:55:22.156Z,14.23
2018-05-31T13:57:48.896Z,14.50
2018-05-31T14:00:15.640Z,14.33
2018-05-31T14:02:42.382Z,15.17
2018-05-31T14:05:09.116Z,15.60
2018-05-31T14:07:35.866Z,15.70
2018-05-31T14:10:02.615Z,15.13
2018-05-31T14:12:29.372Z,15.47
2018-05-31T14:14:56.198Z,15.90
2018-05-31T14:17:22.967Z,15.10
2018-05-31T14:19:49.688Z,16.10
2018-05-31T14:22:16.438Z,16.70
2018-05-31T14:24:43.166Z,16.20
2018-05-31T14:27:09.914Z,17.33
2018-05-31T14:29:36.656Z,15.90
2018-05-31T14:32:03.414Z,16.90
2018-05-31T14:34:30.133Z,16.50
2018-05-31T14:36:56.877Z,15.40
2018-05-31T14:39:23.606Z,17.40
2018-05-31T14:41:50.336Z,17.10
2018-05-31T14:44:17.101Z,15.67
2018-05-31T14:46:43.847Z,17.50
2018-05-31T14:49:10.619Z,16.40
2018-05-31T14:51:37.342Z,16.97
2018-05-31T14:54:04.103Z,16.80
2018-05-31T14:56:30.845Z,16.93
2018-05-31T14:58:57.580Z,17.00
2018-05-31T15:01:24.312Z,17.47
2018-05-31T15:03:51.053Z,18.17
2018-05-31T15:06:17.789Z,15.77
2018-05-31T15:08:44.504Z,16.90
2018-05-31T15:11:11.286Z,17.87
2018-05-31T15:13:38.118Z,19.30
2018-05-31T15:16:04.888Z,18.10
2018-05-31T15:18:31.656Z,16.80
2018-05-31T15:20:58.395Z,16.13
2018-05-31T15:23:25.133Z,16.40
2018-05-31T15:25:51.887Z,16.57
2018-05-31T15:28:18.617Z,17.80
2018-05-31T15:30:45.344Z,19.53
2018-05-31T15:33:12.078Z,18.57
2018-05-31T15:35:38.842Z,18.57
2018-05-31T15:38:05.608Z,19.20
2018-05-31T15:40:32.364Z,19.47
2018-05-31T15:42:59.100Z,17.40
2018-05-31T15:45:25.829Z,20.37
2018-05-31T15:47:52.558Z,20.50
2018-05-31T15:50:19.289Z,18.50
2018-05-31T15:52:46.047Z,18.93
2018-05-31T15:55:12.784Z,18.00
2018-05-31T15:57:39.516Z,21.47
2018-05-31T16:00:06.241Z,18.90
2018-05-31T16:02:32.986Z,19.43
2018-05-31T16:04:59.720Z,18.97
2018-05-31T16:07:26.441Z,18.90
2018-05-31T16:09:53.185Z,19.00
2018-05-31T16:12:19.922Z,19.00
2018-05-31T16:14:46.677Z,19.70
2018-05-31T16:17:13.425Z,20.90
2018-05-31T16:19:40.141Z,20.37
2018-05-31T16:22:06.920Z,20.03
2018-05-31T16:24:33.631Z,21.47
2018-05-31T16:27:00.367Z,20.67
2018-05-31T16:29:27.113Z,19.63
2018-05-31T16:31:53.907Z,20.77
2018-05-31T16:34:20.645Z,21.53
2018-05-31T16:36:47.377Z,19.00
2018-05-31T16:39:14.174Z,21.37
2018-05-31T16:41:40.900Z,19.70
2018-05-31T16:44:08.344Z,20.13
2018-05-31T16:46:35.165Z,20.40
2018-05-31T16:49:01.954Z,19.60
2018-05-31T16:51:28.706Z,21.13
2018-05-31T16:53:55.453Z,19.63
2018-05-31T16:56:22.189Z,19.90
2018-05-31T16:58:48.941Z,20.67
2018-05-31T17:01:15.690Z,21.10
2018-05-31T17:03:42.447Z,22.70
2018-05-31T17:06:09.177Z,19.67
2018-05-31T17:08:35.918Z,22.20
2018-05-31T17:11:02.649Z,20.37
2018-05-31T17:13:29.401Z,21.10
2018-05-31T17:16:00.178Z,20.87
2018-05-31T17:18:26.896Z,20.77
2018-05-31T17:20:53.637Z,19.97
2018-05-31T17:23:20.377Z,18.67
2018-05-31T17:25:47.137Z,21.67
2018-05-31T17:28:13.866Z,21.10
2018-05-31T17:30:40.596Z,19.97
2018-05-31T17:33:07.378Z,21.20
2018-05-31T17:35:34.131Z,20.23
2018-05-31T17:38:00.879Z,21.30
2018-05-31T17:40:27.610Z,21.90
2018-05-31T17:42:54.373Z,21.90
2018-05-31T17:45:21.099Z,21.53
2018-05-31T17:47:47.865Z,19.90
2018-05-31T17:50:14.624Z,21.60
2018-05-31T17:52:41.365Z,22.30
2018-05-31T17:55:08.096Z,21.70
2018-05-31T17:57:34.862Z,22.33
2018-05-31T18:00:01.634Z,22.53
2018-05-31T18:02:28.379Z,23.47
2018-05-31T18:04:55.188Z,22.33
2018-05-31T18:07:21.961Z,21.67
2018-05-31T18:09:48.856Z,22.67
2018-05-31T18:12:15.639Z,22.83
2018-05-31T18:14:42.362Z,22.00
2018-05-31T18:17:09.117Z,22.40
2018-05-31T18:19:35.894Z,24.10
2018-05-31T18:22:02.628Z,23.03
2018-05-31T18:24:29.361Z,21.30
2018-05-31T18:26:56.084Z,21.23
2018-05-31T18:29:22.860Z,24.37
2018-05-31T18:31:49.616Z,23.60
2018-05-31T18:34:16.349Z,23.93
2018-05-31T18:36:43.106Z,23.33
2018-05-31T18:39:09.859Z,22.10
2018-05-31T18:41:36.577Z,25.27
2018-05-31T18:44:03.353Z,25.40
2018-05-31T18:46:30.085Z,23.83
2018-05-31T18:48:56.858Z,23.00
2018-05-31T18:51:23.593Z,23.43
2018-05-31T18:53:50.409Z,23.70
2018-05-31T18:56:17.175Z,24.30
2018-05-31T18:58:43.941Z,23.70
2018-05-31T19:01:10.681Z,23.20
2018-05-31T19:03:37.430Z,22.90
2018-05-31T19:06:04.155Z,23.83
2018-05-31T19:08:30.919Z,23.40
2018-05-31T19:10:57.689Z,22.43
2018-05-31T19:13:30.226Z,24.13
2018-05-31T19:15:56.982Z,22.97
2018-05-31T19:18:29.535Z,24.70
2018-05-31T19:20:56.265Z,24.07
2018-05-31T19:23:23.004Z,23.87
2018-05-31T19:25:49.741Z,24.07
2018-05-31T19:28:16.527Z,24.63
2018-05-31T19:30:49.097Z,23.33
2018-05-31T19:33:15.827Z,23.63
2018-05-31T19:35:49.184Z,24.40
2018-05-31T19:38:15.929Z,24.27
2018-05-31T19:40:42.686Z,24.77
2018-05-31T19:43:15.154Z,23.53
2018-05-31T19:45:41.893Z,25.20
2018-05-31T19:48:08.676Z,23.80
2018-05-31T19:50:35.420Z,23.00
2018-05-31T19:53:07.859Z,23.67
2018-05-31T19:55:34.618Z,23.20
2018-05-31T19:58:07.197Z,23.03
2018-05-31T20:00:39.755Z,23.47
2018-05-31T20:03:12.032Z,24.33
2018-05-31T20:05:38.809Z,25.00
2018-05-31T20:08:05.555Z,22.83
2018-05-31T20:10:36.333Z,23.53
2018-05-31T20:13:03.106Z,23.33
2018-05-31T20:15:29.863Z,23.83
2018-05-31T20:17:56.715Z,23.83
2018-05-31T20:20:23.453Z,24.53
2018-05-31T20:22:50.193Z,23.73
2018-05-31T20:25:16.948Z,23.43
2018-05-31T20:27:43.717Z,24.40
2018-05-31T20:30:10.473Z,25.33
2018-05-31T20:32:37.210Z,22.67
2018-05-31T20:35:03.962Z,25.57
2018-05-31T20:37:30.718Z,26.53
2018-05-31T20:39:57.467Z,24.53
2018-05-31T20:42:24.208Z,25.50
2018-05-31T20:44:50.952Z,24.07
2018-05-31T20:47:17.703Z,24.67
2018-05-31T20:49:44.441Z,25.60
2018-05-31T20:52:11.187Z,26.70
2018-05-31T20:54:37.933Z,25.57
2018-05-31T20:57:04.709Z,26.03
2018-05-31T20:59:31.431Z,24.83
2018-05-31T21:01:58.193Z,26.07
2018-05-31T21:04:24.943Z,25.07
2018-05-31T21:06:51.685Z,27.50
2018-05-31T21:09:18.416Z,25.07
2018-05-31T21:11:45.136Z,26.57
2018-05-31T21:14:11.860Z,26.00
2018-05-31T21:16:38.578Z,25.60
2018-05-31T21:19:05.338Z,25.07
2018-05-31T21:21:32.089Z,25.63
2018-05-31T21:23:58.816Z,26.10
2018-05-31T21:26:25.549Z,26.03
2018-05-31T21:28:52.288Z,26.80
2018-05-31T21:31:19.018Z,25.30
2018-05-31T21:33:45.777Z,25.63
2018-05-31T21:36:12.505Z,26.93
2018-05-31T21:38:39.253Z,27.23
2018-05-31T21:41:06.004Z,27.80
2018-05-31T21:43:32.735Z,26.30
2018-05-31T21:45:59.469Z,26.93
2018-05-31T21:48:26.212Z,25.10
2018-05-31T21:50:52.932Z,25.03
2018-05-31T21:53:19.652Z,25.07
2018-05-31T21:55:46.393Z,25.80
2018-05-31T21:58:13.128Z,25.33
2018-05-31T22:00:45.536Z,26.63
2018-05-31T22:03:12.264Z,26.73
2018-05-31T22:05:39.003Z,25.80
2018-05-31T22:08:05.744Z,26.57
2018-05-31T22:10:32.472Z,26.23
2018-05-31T22:12:59.196Z,26.77
2018-05-31T22:15:25.938Z,27.00
2018-05-31T22:17:52.692Z,28.03
2018-05-31T22:20:19.434Z,26.10
2018-05-31T22:22:46.159Z,28.90
2018-05-31T22:25:12.900Z,28.47
2018-05-31T22:27:39.637Z,28.87
2018-05-31T22:30:06.369Z,27.70
2018-05-31T22:32:33.091Z,26.97
2018-05-31T22:34:59.834Z,27.90
2018-05-31T22:37:26.565Z,28.77
2018-05-31T22:39:53.296Z,28.73
2018-05-31T22:42:20.025Z,28.43
2018-05-31T22:44:46.761Z,27.60
2018-05-31T22:47:13.522Z,28.67
2018-05-31T22:49:40.262Z,26.87
2018-05-31T22:52:07.001Z,26.10
2018-05-31T22:54:33.727Z,26.80
2018-05-31T22:57:00.466Z,26.97
2018-05-31T22:59:27.190Z,27.03
2018-05-31T23:01:53.918Z,28.17
2018-05-31T23:04:20.635Z,28.50
2018-05-31T23:06:47.371Z,30.03
2018-05-31T23:09:14.103Z,29.90
2018-05-31T23:11:40.842Z,28.13
2018-05-31T23:14:07.589Z,29.63
2018-05-31T23:16:34.329Z,27.47
2018-05-31T23:19:01.059Z,27.47
2018-05-31T23:21:27.784Z,26.87
2018-05-31T23:23:54.520Z,25.90
2018-05-31T23:26:21.229Z,26.43
2018-05-31T23:28:47.986Z,27.20
2018-05-31T23:31:14.711Z,27.43
2018-05-31T23:33:41.439Z,25.67
2018-05-31T23:36:08.163Z,28.20
2018-05-31T23:38:34.891Z,26.37
2018-05-31T23:41:01.639Z,26.10
2018-05-31T23:43:28.357Z,26.67
2018-05-31T23:45:55.077Z,27.07
2018-05-31T23:48:21.812Z,25.27
2018-05-31T23:50:48.575Z,28.70
2018-05-31T23:53:15.297Z,27.70
2018-05-31T23:55:42.030Z,28.80
2018-05-31T23:58:08.753Z,29.23
